createdAt,value
2022-10-11T00:01:17.240Z,99.90
2022-10-11T00:03:47.476Z,99.90
2022-10-11T00:06:16.269Z,99.90
2022-10-11T00:11:35.840Z,99.90
2022-10-11T00:14:05.198Z,99.90
2022-10-11T00:16:34.434Z,99.90
2022-10-11T00:19:04.941Z,99.90
2022-10-11T00:21:34.049Z,99.90
2022-10-11T00:24:03.919Z,99.90
2022-10-11T00:26:33.097Z,99.90
2022-10-11T00:29:02.080Z,99.90
2022-10-11T00:31:35.508Z,99.90
2022-10-11T00:34:06.922Z,99.90
2022-10-11T00:36:36.111Z,99.90
2022-10-11T00:39:05.916Z,99.90
2022-10-11T00:41:35.039Z,99.90
2022-10-11T00:44:19.272Z,99.90
2022-10-11T00:46:55.957Z,99.90
2022-10-11T00:49:39.841Z,99.90
2022-10-11T00:52:15.726Z,99.90
2022-10-11T00:54:47.379Z,99.90
2022-10-11T00:57:19.165Z,99.90
2022-10-11T00:59:54.143Z,99.90
2022-10-11T01:02:23.870Z,99.90
2022-10-11T01:05:18.017Z,99.90
2022-10-11T01:07:44.375Z,99.90
2022-10-11T01:10:13.436Z,99.90
2022-10-11T01:12:52.878Z,99.90
2022-10-11T01:15:29.566Z,99.90
2022-10-11T01:18:05.726Z,99.90
2022-10-11T01:20:50.401Z,99.90
2022-10-11T01:23:47.651Z,99.90
2022-10-11T01:26:55.903Z,99.90
2022-10-11T01:29:40.298Z,99.90
2022-10-11T01:32:17.650Z,99.90
2022-10-11T01:34:56.130Z,99.90
2022-10-11T01:37:32.201Z,99.90
2022-10-11T01:40:06.913Z,99.90
2022-10-11T01:42:37.965Z,99.90
2022-10-11T01:45:09.642Z,99.90
2022-10-11T01:47:40.330Z,99.90
2022-10-11T01:50:36.433Z,99.90
2022-10-11T01:53:21.031Z,99.90
2022-10-11T01:55:55.867Z,99.90
2022-10-11T01:58:35.989Z,99.90
2022-10-11T02:01:16.846Z,99.90
2022-10-11T02:03:55.739Z,99.90
2022-10-11T02:06:34.730Z,99.90
2022-10-11T02:09:10.233Z,99.90
2022-10-11T02:11:40.528Z,99.90
2022-10-11T02:14:13.187Z,99.90
2022-10-11T02:16:45.154Z,99.90
2022-10-11T02:19:20.880Z,99.90
2022-10-11T02:21:54.725Z,99.90
2022-10-11T02:24:28.692Z,99.90
2022-10-11T02:27:00.468Z,99.90
2022-10-11T02:29:33.789Z,99.90
2022-10-11T02:32:03.474Z,99.90
2022-10-11T02:34:37.605Z,99.90
2022-10-11T02:37:11.302Z,99.90
2022-10-11T02:39:44.266Z,99.90
2022-10-11T02:42:19.059Z,99.90
2022-10-11T02:44:59.871Z,99.90
2022-10-11T02:47:30.846Z,99.90
2022-10-11T02:50:03.048Z,99.90
2022-10-11T02:52:32.154Z,99.90
2022-10-11T02:55:01.203Z,99.90
2022-10-11T02:57:30.302Z,99.90
2022-10-11T02:59:59.414Z,99.90
2022-10-11T03:02:28.512Z,99.90
2022-10-11T03:04:57.892Z,99.90
2022-10-11T03:07:28.451Z,99.90
2022-10-11T03:09:57.555Z,99.90
2022-10-11T03:12:26.569Z,99.90
2022-10-11T03:14:55.559Z,99.90
2022-10-11T03:17:36.101Z,99.90
2022-10-11T03:20:06.002Z,99.90
2022-10-11T03:22:36.530Z,99.90
2022-10-11T03:25:05.895Z,99.90
2022-10-11T03:27:35.219Z,99.90
2022-10-11T03:30:05.319Z,99.90
2022-10-11T03:32:34.292Z,99.90
2022-10-11T03:35:03.469Z,99.90
2022-10-11T03:37:32.479Z,99.90
2022-10-11T03:40:03.587Z,99.90
2022-10-11T03:42:32.747Z,99.90
2022-10-11T03:45:04.963Z,99.90
2022-10-11T03:47:34.093Z,99.90
2022-10-11T03:50:03.234Z,99.90
2022-10-11T03:52:32.213Z,99.90
2022-10-11T03:55:02.974Z,99.90
2022-10-11T03:57:32.084Z,99.90
2022-10-11T04:00:01.130Z,99.90
2022-10-11T04:02:30.254Z,99.90
2022-10-11T04:04:59.350Z,99.90
2022-10-11T04:07:28.501Z,99.90
2022-10-11T04:09:57.610Z,99.90
2022-10-11T04:12:28.121Z,99.90
2022-10-11T04:14:57.164Z,99.90
2022-10-11T04:17:26.324Z,99.90
2022-10-11T04:19:55.401Z,99.90
2022-10-11T04:22:24.576Z,99.90
2022-10-11T04:24:53.696Z,99.90
2022-10-11T04:27:22.708Z,99.90
2022-10-11T04:29:53.342Z,99.90
2022-10-11T04:32:22.487Z,99.90
2022-10-11T04:34:52.483Z,99.90
2022-10-11T04:37:21.943Z,99.90
2022-10-11T04:39:50.960Z,99.90
2022-10-11T04:42:20.689Z,99.90
2022-10-11T04:44:49.789Z,99.90
2022-10-11T04:47:20.512Z,99.90
2022-10-11T04:49:49.548Z,99.90
2022-10-11T04:52:22.117Z,99.90
2022-10-11T04:54:53.784Z,99.90
2022-10-11T04:57:22.780Z,99.90
2022-10-11T04:59:51.869Z,99.90
2022-10-11T05:02:22.472Z,99.90
2022-10-11T05:04:51.568Z,99.90
2022-10-11T05:07:20.768Z,99.90
2022-10-11T05:09:49.818Z,99.90
2022-10-11T05:12:18.902Z,99.90
2022-10-11T05:14:47.992Z,99.90
2022-10-11T05:17:16.995Z,99.90
2022-10-11T05:28:13.682Z,99.90
2022-10-11T05:30:42.863Z,99.90
2022-10-11T05:33:13.664Z,99.90
2022-10-11T05:35:42.735Z,99.90
2022-10-11T05:38:12.073Z,99.90
2022-10-11T05:40:41.460Z,99.90
2022-10-11T05:43:12.756Z,99.90
2022-10-11T05:45:43.146Z,99.90
2022-10-11T05:48:12.953Z,99.90
2022-10-11T05:50:42.017Z,99.90
2022-10-11T05:53:11.085Z,99.90
2022-10-11T05:55:40.925Z,99.90
2022-10-11T05:58:13.004Z,99.90
2022-10-11T06:00:42.603Z,99.90
2022-10-11T06:03:13.876Z,99.90
2022-10-11T06:05:42.933Z,99.90
2022-10-11T06:08:12.109Z,99.90
2022-10-11T06:10:41.595Z,99.90
2022-10-11T06:13:12.842Z,99.90
2022-10-11T06:15:42.298Z,99.90
2022-10-11T06:18:11.327Z,99.90
2022-10-11T06:20:40.564Z,99.90
2022-10-11T06:23:09.799Z,99.90
2022-10-11T06:25:38.828Z,99.90
2022-10-11T06:28:07.906Z,99.90
2022-10-11T06:30:40.578Z,99.90
2022-10-11T06:33:09.553Z,99.90
2022-10-11T06:35:38.580Z,99.90
2022-10-11T06:38:07.768Z,99.90
2022-10-11T06:40:36.865Z,99.90
2022-10-11T06:43:06.173Z,99.90
2022-10-11T06:45:35.268Z,99.90
2022-10-11T06:48:06.763Z,99.90
2022-10-11T06:50:58.444Z,99.90
2022-10-11T06:53:24.941Z,99.90
2022-10-11T06:55:53.974Z,99.90
2022-10-11T06:58:23.058Z,99.90
2022-10-11T07:00:52.156Z,99.90
2022-10-11T07:03:22.622Z,99.90
2022-10-11T07:05:51.664Z,99.90
2022-10-11T07:08:20.667Z,99.90
2022-10-11T07:10:49.710Z,99.90
2022-10-11T07:13:18.987Z,99.30
2022-10-11T07:15:47.980Z,98.70
2022-10-11T07:18:17.072Z,98.30
2022-10-11T07:20:47.907Z,97.80
2022-10-11T07:23:16.959Z,98.00
2022-10-11T07:25:46.779Z,97.50
2022-10-11T07:28:16.192Z,97.60
2022-10-11T07:30:45.299Z,96.90
2022-10-11T07:33:14.367Z,96.50
2022-10-11T07:35:48.062Z,96.40
2022-10-11T07:38:19.107Z,96.10
2022-10-11T07:40:48.696Z,95.50
2022-10-11T07:43:17.988Z,95.00
2022-10-11T07:45:48.968Z,94.40
2022-10-11T07:48:17.967Z,94.20
2022-10-11T07:50:47.035Z,94.30
2022-10-11T07:53:17.490Z,94.30
2022-10-11T07:55:46.964Z,94.20
2022-10-11T07:58:15.956Z,94.20
2022-10-11T08:00:45.068Z,94.20
2022-10-11T08:03:15.261Z,94.10
2022-10-11T08:05:44.354Z,93.90
2022-10-11T08:08:13.397Z,93.80
2022-10-11T08:10:43.873Z,94.20
2022-10-11T08:13:12.905Z,95.30
2022-10-11T08:15:41.896Z,95.40
2022-10-11T08:18:10.979Z,95.10
2022-10-11T08:20:40.914Z,94.50
2022-10-11T08:23:10.259Z,94.10
2022-10-11T08:25:40.261Z,94.00
2022-10-11T08:28:15.896Z,94.10
2022-10-11T08:30:49.654Z,94.00
2022-10-11T08:33:18.797Z,93.90
2022-10-11T08:35:49.324Z,94.30
2022-10-11T08:38:18.851Z,94.00
2022-10-11T08:40:48.656Z,93.40
2022-10-11T08:43:34.643Z,93.00
2022-10-11T08:46:06.309Z,93.40
2022-10-11T08:48:38.560Z,93.20
2022-10-11T08:51:14.078Z,92.70
2022-10-11T08:53:49.402Z,92.70
2022-10-11T08:56:19.055Z,92.70
2022-10-11T08:58:57.575Z,92.10
2022-10-11T09:01:29.560Z,91.40
2022-10-11T09:04:00.299Z,91.60
2022-10-11T09:06:44.993Z,91.60
2022-10-11T09:09:28.814Z,90.40
2022-10-11T09:12:12.824Z,90.70
2022-10-11T09:14:57.250Z,89.80
2022-10-11T09:17:38.449Z,88.90
2022-10-11T09:20:35.708Z,88.10
2022-10-11T09:23:10.543Z,88.80
2022-10-11T09:25:47.186Z,86.90
2022-10-11T09:28:29.044Z,88.40
2022-10-11T09:31:00.962Z,88.40
2022-10-11T09:33:35.614Z,90.20
2022-10-11T09:36:17.356Z,88.50
2022-10-11T09:38:53.688Z,88.60
2022-10-11T09:41:31.984Z,90.10
2022-10-11T09:44:01.039Z,90.10
2022-10-11T09:46:38.014Z,90.30
2022-10-11T09:49:11.379Z,87.90
2022-10-11T09:51:43.225Z,88.30
2022-10-11T09:54:12.268Z,89.20
2022-10-11T09:56:45.240Z,89.40
2022-10-11T09:59:29.827Z,88.20
2022-10-11T10:02:23.525Z,87.20
2022-10-11T10:05:03.067Z,88.90
2022-10-11T10:07:34.215Z,87.70
2022-10-11T10:10:29.679Z,84.40
2022-10-11T10:13:01.611Z,86.20
2022-10-11T10:15:32.645Z,84.00
2022-10-11T10:18:03.936Z,83.50
2022-10-11T10:20:35.598Z,81.50
2022-10-11T10:23:10.643Z,83.30
2022-10-11T10:25:43.718Z,81.40
2022-10-11T10:28:22.357Z,82.70
2022-10-11T10:30:56.711Z,79.80
2022-10-11T10:33:32.603Z,79.90
2022-10-11T10:36:07.349Z,76.90
2022-10-11T10:38:42.246Z,77.20
2022-10-11T10:41:13.391Z,76.60
2022-10-11T10:43:45.096Z,76.20
2022-10-11T10:46:34.826Z,75.90
2022-10-11T10:49:41.605Z,76.50
2022-10-11T10:52:27.548Z,74.90
2022-10-11T10:55:00.988Z,74.10
2022-10-11T10:57:38.097Z,74.20
2022-10-11T11:00:15.005Z,71.90
2022-10-11T11:02:52.428Z,71.40
2022-10-11T11:05:35.224Z,70.30
2022-10-11T11:08:11.566Z,70.40
2022-10-11T11:10:49.961Z,70.20
2022-10-11T11:13:24.293Z,65.60
2022-10-11T11:16:02.123Z,64.80
2022-10-11T11:18:38.165Z,67.00
2022-10-11T11:21:32.502Z,66.00
2022-10-11T11:24:12.660Z,65.00
2022-10-11T11:26:51.697Z,65.70
2022-10-11T11:29:39.084Z,63.50
2022-10-11T11:32:17.478Z,64.00
2022-10-11T11:34:51.196Z,63.40
2022-10-11T11:37:27.530Z,64.90
2022-10-11T11:39:59.384Z,66.80
2022-10-11T11:42:35.966Z,66.00
2022-10-11T11:45:14.488Z,64.90
2022-10-11T11:47:49.134Z,64.50
2022-10-11T11:50:22.873Z,64.40
2022-10-11T11:52:57.652Z,65.10
2022-10-11T11:55:33.679Z,65.80
2022-10-11T11:58:16.360Z,64.60
2022-10-11T12:00:55.882Z,64.50
2022-10-11T12:03:29.420Z,63.90
2022-10-11T12:06:21.903Z,61.30
2022-10-11T12:09:04.197Z,60.80
2022-10-11T12:11:43.804Z,60.70
2022-10-11T12:14:30.810Z,63.50
2022-10-11T12:17:19.272Z,63.60
2022-10-11T12:20:16.089Z,62.30
2022-10-11T12:22:58.568Z,63.40
2022-10-11T12:25:38.610Z,62.60
2022-10-11T12:28:40.879Z,62.50
2022-10-11T12:31:21.560Z,63.10
2022-10-11T12:33:54.042Z,61.30
2022-10-11T12:36:39.761Z,61.80
2022-10-11T12:39:43.943Z,62.30
2022-10-11T12:42:24.789Z,62.50
2022-10-11T12:45:31.686Z,63.10
2022-10-11T12:48:24.304Z,62.80
2022-10-11T12:51:03.954Z,61.70
2022-10-11T12:54:25.005Z,62.60
2022-10-11T12:56:58.313Z,62.20
2022-10-11T12:59:29.097Z,61.30
2022-10-11T13:02:00.908Z,59.30
2022-10-11T13:04:31.985Z,58.70
2022-10-11T13:07:06.846Z,60.70
2022-10-11T13:09:40.142Z,60.00
2022-10-11T13:12:16.010Z,58.70
2022-10-11T13:14:48.855Z,59.40
2022-10-11T13:17:22.187Z,60.30
2022-10-11T13:20:00.522Z,59.50
2022-10-11T13:22:29.966Z,57.60
2022-10-11T13:24:59.256Z,56.40
2022-10-11T13:27:29.546Z,57.20
2022-10-11T13:30:02.576Z,56.70
2022-10-11T13:32:34.034Z,56.80
2022-10-11T13:35:05.204Z,56.70
2022-10-11T13:37:42.474Z,55.00
2022-10-11T13:40:15.859Z,55.30
2022-10-11T13:42:45.216Z,55.30
2022-10-11T13:45:18.588Z,53.90
2022-10-11T13:47:48.897Z,52.30
2022-10-11T13:50:26.686Z,52.80
2022-10-11T13:52:58.001Z,53.20
2022-10-11T13:55:30.303Z,54.50
2022-10-11T13:58:01.953Z,54.00
2022-10-11T14:00:35.288Z,54.50
2022-10-11T14:03:08.847Z,54.60
2022-10-11T14:05:41.396Z,54.60
2022-10-11T14:08:25.413Z,55.30
2022-10-11T14:10:57.900Z,55.50
2022-10-11T14:13:33.516Z,54.80
2022-10-11T14:16:08.128Z,54.90
2022-10-11T14:18:45.300Z,54.50
2022-10-11T14:21:35.306Z,55.20
2022-10-11T14:24:06.507Z,55.30
2022-10-11T14:26:37.674Z,55.90
2022-10-11T14:29:10.184Z,55.40
2022-10-11T14:31:42.306Z,55.40
2022-10-11T14:34:17.973Z,56.50
2022-10-11T14:36:47.051Z,56.90
2022-10-11T14:39:18.524Z,55.20
2022-10-11T14:41:48.275Z,54.90
2022-10-11T14:44:18.150Z,54.90
2022-10-11T14:46:50.689Z,53.40
2022-10-11T14:49:25.801Z,53.20
2022-10-11T14:51:56.867Z,54.10
2022-10-11T14:54:27.768Z,53.80
2022-10-11T14:57:01.836Z,53.60
2022-10-11T14:59:35.128Z,54.90
2022-10-11T15:02:07.194Z,56.90
2022-10-11T15:04:36.407Z,57.30
2022-10-11T15:07:07.027Z,55.70
2022-10-11T15:09:36.068Z,56.60
2022-10-11T15:12:05.455Z,56.80
2022-10-11T15:14:34.473Z,57.10
2022-10-11T15:17:04.996Z,58.70
2022-10-11T15:19:34.137Z,59.30
2022-10-11T15:22:06.138Z,59.70
2022-10-11T15:24:35.167Z,59.60
2022-10-11T15:27:04.294Z,60.40
2022-10-11T15:29:33.354Z,60.40
2022-10-11T15:32:02.394Z,60.90
2022-10-11T15:34:32.836Z,61.10
2022-10-11T15:37:01.948Z,61.90
2022-10-11T15:39:33.938Z,60.90
2022-10-11T15:42:03.024Z,60.50
2022-10-11T15:44:32.019Z,60.20
2022-10-11T15:47:01.124Z,60.50
2022-10-11T15:49:31.604Z,60.60
2022-10-11T15:52:00.630Z,61.50
2022-10-11T15:54:30.560Z,62.10
2022-10-11T15:56:59.641Z,61.30
2022-10-11T15:59:28.752Z,60.90
2022-10-11T16:01:58.557Z,60.30
2022-10-11T16:04:27.724Z,59.20
2022-10-11T16:06:58.259Z,59.60
2022-10-11T16:09:27.396Z,59.80
2022-10-11T16:11:56.530Z,60.30
2022-10-11T16:14:25.889Z,60.90
2022-10-11T16:16:55.576Z,61.60
2022-10-11T16:19:24.558Z,62.50
2022-10-11T16:21:53.638Z,63.90
2022-10-11T16:24:24.127Z,64.70
2022-10-11T16:26:53.467Z,65.60
2022-10-11T16:29:23.373Z,65.80
2022-10-11T16:31:52.446Z,66.10
2022-10-11T16:34:21.549Z,66.70
2022-10-11T16:36:50.621Z,68.10
2022-10-11T16:39:20.632Z,69.90
2022-10-11T16:41:51.219Z,71.70
2022-10-11T16:44:25.174Z,73.00
2022-10-11T16:46:54.235Z,73.90
2022-10-11T16:49:25.579Z,75.40
2022-10-11T16:51:56.148Z,76.30
2022-10-11T16:54:25.313Z,77.40
2022-10-11T16:56:58.249Z,79.00
2022-10-11T16:59:27.532Z,80.30
2022-10-11T17:01:58.020Z,80.60
2022-10-11T17:04:27.117Z,80.70
2022-10-11T17:06:56.787Z,81.90
2022-10-11T17:09:26.275Z,83.10
2022-10-11T17:11:57.090Z,85.20
2022-10-11T17:14:26.126Z,86.30
2022-10-11T17:16:55.173Z,87.50
2022-10-11T17:19:24.269Z,88.40
2022-10-11T17:21:53.351Z,90.00
2022-10-11T17:24:22.342Z,90.60
2022-10-11T17:26:51.623Z,91.40
2022-10-11T17:29:24.269Z,91.90
2022-10-11T17:31:53.748Z,92.40
2022-10-11T17:34:22.885Z,92.90
2022-10-11T17:36:51.979Z,93.10
2022-10-11T17:39:23.395Z,93.10
2022-10-11T17:41:52.869Z,93.00
2022-10-11T17:44:23.489Z,92.60
2022-10-11T17:46:52.706Z,92.30
2022-10-11T17:49:21.727Z,92.40
2022-10-11T17:51:50.916Z,93.30
2022-10-11T17:54:19.898Z,93.40
2022-10-11T17:56:49.809Z,93.60
2022-10-11T17:59:22.508Z,93.40
2022-10-11T18:01:53.736Z,92.80
2022-10-11T18:04:27.007Z,92.80
2022-10-11T18:06:56.011Z,92.40
2022-10-11T18:09:25.425Z,92.60
2022-10-11T18:11:54.586Z,92.40
2022-10-11T18:14:23.769Z,92.30
2022-10-11T18:16:54.288Z,92.40
2022-10-11T18:19:23.353Z,92.30
2022-10-11T18:21:52.366Z,92.70
2022-10-11T18:24:21.422Z,93.10
2022-10-11T18:26:50.443Z,92.60
2022-10-11T18:29:19.496Z,92.50
2022-10-11T18:31:48.553Z,92.00
2022-10-11T18:34:19.068Z,92.00
2022-10-11T18:36:48.390Z,92.10
2022-10-11T18:39:17.682Z,92.30
2022-10-11T18:41:46.723Z,92.40
2022-10-11T18:44:17.355Z,92.60
2022-10-11T18:46:46.932Z,92.90
2022-10-11T18:49:17.785Z,93.30
2022-10-11T18:51:48.179Z,93.70
2022-10-11T18:54:21.013Z,94.10
2022-10-11T18:56:51.223Z,94.50
2022-10-11T18:59:20.549Z,94.80
2022-10-11T19:01:52.580Z,95.20
2022-10-11T19:04:23.273Z,95.40
2022-10-11T19:06:53.664Z,95.80
2022-10-11T19:09:26.279Z,95.90
2022-10-11T19:11:57.382Z,96.20
2022-10-11T19:14:29.122Z,96.30
2022-10-11T19:16:58.902Z,96.30
2022-10-11T19:19:31.939Z,96.10
2022-10-11T19:22:01.399Z,95.80
2022-10-11T19:24:33.629Z,95.90
2022-10-11T19:27:03.783Z,95.90
2022-10-11T19:29:37.030Z,95.90
2022-10-11T19:32:06.789Z,96.10
2022-10-11T19:34:37.278Z,96.30
2022-10-11T19:37:08.045Z,96.80
2022-10-11T19:39:37.173Z,96.60
2022-10-11T19:42:06.393Z,96.50
2022-10-11T19:44:40.522Z,96.40
2022-10-11T19:47:10.366Z,96.10
2022-10-11T19:49:40.892Z,96.00
2022-10-11T19:52:10.303Z,95.80
2022-10-11T19:54:39.422Z,95.80
2022-10-11T19:57:09.682Z,96.00
2022-10-11T19:59:38.741Z,95.90
2022-10-11T20:02:07.878Z,95.70
2022-10-11T20:04:52.041Z,95.80
2022-10-11T20:07:22.087Z,95.90
2022-10-11T20:09:51.180Z,95.60
2022-10-11T20:12:20.205Z,95.50
2022-10-11T20:14:49.286Z,95.40
2022-10-11T20:17:18.394Z,95.40
2022-10-11T20:19:49.033Z,95.40
2022-10-11T20:22:19.236Z,95.10
2022-10-11T20:24:48.310Z,95.00
2022-10-11T20:27:17.346Z,95.10
2022-10-11T20:29:46.409Z,95.30
2022-10-11T20:32:15.416Z,95.50
2022-10-11T20:34:45.072Z,95.60
2022-10-11T20:37:15.617Z,95.80
2022-10-11T20:39:44.680Z,95.50
2022-10-11T20:42:13.759Z,95.30
2022-10-11T20:44:43.937Z,95.20
2022-10-11T20:47:15.022Z,95.20
2022-10-11T20:49:44.045Z,95.20
2022-10-11T20:52:14.552Z,95.20
2022-10-11T20:54:43.700Z,95.20
2022-10-11T20:57:12.711Z,95.10
2022-10-11T20:59:41.759Z,94.90
2022-10-11T21:02:16.596Z,94.90
2022-10-11T21:04:47.781Z,94.90
2022-10-11T21:07:18.294Z,94.90
2022-10-11T21:09:47.341Z,95.00
2022-10-11T21:12:16.321Z,94.90
2022-10-11T21:14:45.416Z,96.70
2022-10-11T21:17:15.085Z,97.50
2022-10-11T21:19:44.310Z,98.00
2022-10-11T21:22:13.400Z,98.30
2022-10-11T21:24:43.911Z,98.70
2022-10-11T21:27:13.209Z,99.60
2022-10-11T21:29:42.219Z,99.80
2022-10-11T21:32:14.398Z,99.90
2022-10-11T21:34:43.807Z,99.90
2022-10-11T21:37:13.148Z,99.90
2022-10-11T21:39:43.660Z,99.90
2022-10-11T21:42:12.769Z,99.90
2022-10-11T21:44:43.635Z,99.90
2022-10-11T21:47:12.928Z,99.90
2022-10-11T21:49:41.941Z,99.90
2022-10-11T21:52:11.874Z,99.90
2022-10-11T21:54:42.516Z,99.90
2022-10-11T21:57:11.515Z,99.90
2022-10-11T21:59:40.668Z,99.90
2022-10-11T22:02:09.810Z,99.90
2022-10-11T22:04:38.915Z,99.90
2022-10-11T22:07:07.975Z,99.90
2022-10-11T22:09:37.139Z,99.90
2022-10-11T22:12:08.143Z,99.90
2022-10-11T22:14:37.258Z,99.90
2022-10-11T22:17:06.261Z,99.90
2022-10-11T22:19:37.315Z,99.90
2022-10-11T22:22:06.508Z,99.90
2022-10-11T22:24:35.565Z,99.90
2022-10-11T22:27:04.646Z,99.90
2022-10-11T22:29:35.301Z,99.70
2022-10-11T22:32:04.442Z,99.70
2022-10-11T22:34:34.609Z,99.60
2022-10-11T22:37:03.698Z,99.60
2022-10-11T22:39:32.887Z,99.50
2022-10-11T22:42:02.091Z,99.70
2022-10-11T22:44:34.660Z,99.80
2022-10-11T22:47:03.656Z,99.70
2022-10-11T22:49:32.634Z,99.90
2022-10-11T22:52:01.630Z,99.90
2022-10-11T22:54:30.669Z,99.90
2022-10-11T22:57:00.115Z,99.90
2022-10-11T22:59:29.107Z,99.90
2022-10-11T23:01:59.589Z,99.90
2022-10-11T23:04:28.694Z,99.90
2022-10-11T23:07:01.221Z,99.90
2022-10-11T23:09:33.013Z,99.90
2022-10-11T23:12:02.074Z,99.90
2022-10-11T23:14:31.157Z,99.90
2022-10-11T23:17:01.727Z,99.70
2022-10-11T23:19:30.770Z,99.50
2022-10-11T23:21:59.842Z,99.20
2022-10-11T23:24:28.932Z,99.20
2022-10-11T23:26:57.948Z,99.20
2022-10-11T23:29:27.005Z,99.00
2022-10-11T23:31:56.111Z,98.90
2022-10-11T23:34:26.964Z,98.80
2022-10-11T23:36:55.985Z,98.90
2022-10-11T23:39:25.084Z,99.00
2022-10-11T23:41:55.666Z,99.30
2022-10-11T23:44:24.676Z,99.50
2022-10-11T23:46:53.763Z,99.60
2022-10-11T23:49:22.804Z,99.50
2022-10-11T23:51:53.250Z,99.90
2022-10-11T23:54:22.303Z,99.90
2022-10-11T23:56:51.358Z,99.90
2022-10-11T23:59:20.441Z,99.90
